Portada
METAR-TAF:

METAR-TAF

Aeroports :

Curaçao, Antilles Neerlandeses

latitud: 12-12N, longitud: 068-58W, altitud: 9 m

Observació

L'informe es va fer fa 1 hora i 14 minuts, a les 05:00 UTC
Vent 6 kt del Nord/Nord-Est
Temperatura 26°C
Humitat 70%
Pressió 1012 hPa
Visibilitat 10 km o més
Cel ennuvolat a una alçada de 1700 ft, Cumulus congestus.
xàfecs en les proximitats

METAR: TNCC 060500Z 02006KT 9999 VCSH BKN017TCU 26/20 Q1012 TEMPO 5000 SHRA BKN015TCU

Hora: 02:14 (06:14 UTC)

Pronòstic

L'informe es va fer fa 1 hora i 14 minuts, a les 05:00 UTC
Pronòstic vàlid del 06 a les 06 UTC al 07 a les 06 UTC
Vent 3 kt amb direcció variable
Visibilitat 10 km o més
Cel ennuvolat a una alçada de 2500 ft
Temporalment
l' 06 a les 06 UTC al 06 a les 16 UTC
Visibilitat: 5000 m
Cel ennuvolat a una alçada de 1400 ft
xàfecs de pluja

TAF: TNCC 060500Z 0606/0706 VRB03KT 9999 BKN025 TEMPO 0606/0616 5000 SHRA BKN014

Observacions i pronòstics meteorològics de més de 4000 aeroports (METAR i TAF).

Les estacions disponibles són els punts grocs i vermells al mapa.

Posi el ratolí al punt desitjat per veure el nom de l'estació.

Feu clic per veure les observacions i els pronòstics meteorològics.

Per canviar el mapa: feu clic els botons verds amb una creu de color negre per apropar; al botó verd amb un guió per allunyar la imatge; o en les fletxes verdes per a mapes adjacents.


METAR-TAF: